Data for 04/17/2008

Time Sea-Level Adjusted Pressure Absolute Pressure Temperature Relative Humidity Dew Point   
(mb) (inHg) (mb) (inHg) (C) (F) (%) (C) (F)
00:05 1020 30.12 849 25.07 1.4 34.6 58 -5.9 21.3
00:10 1020 30.12 849 25.07 1.4 34.5 58 -6 21.2
00:15 1020 30.12 850 25.1 1.5 34.6 57 -6.1 21
00:20 1020 30.12 850 25.1 1.4 34.6 57 -6.1 21
00:25 1020 30.12 850 25.1 1.4 34.5 57 -6.3 20.7
00:30 1020 30.12 850 25.1 1.4 34.4 57 -6.2 20.8
00:35 1020 30.12 850 25.1 1.4 34.4 59 -5.8 21.6
00:40 1020 30.12 850 25.1 1.2 34.1 61 -5.6 21.9
00:45 1020 30.12 850 25.1 1.1 34 61 -5.6 22
00:50 1020 30.12 850 25.1 1.1 34 61 -5.6 21.9
00:55 1020 30.12 850 25.1 1.1 34 61 -5.6 21.9
01:00 1020 30.12 850 25.1 1.1 33.9 61 -5.7 21.8
01:05 1020 30.12 850 25.1 1.1 33.9 62 -5.5 22.1
01:10 1020 30.12 850 25.1 1 33.7 62 -5.5 22.1
01:15 1020 30.12 850 25.1 0.9 33.6 62 -5.5 22.1
01:20 1020 30.12 850 25.1 0.9 33.6 63 -5.4 22.3
01:25 1020 30.12 850 25.1 0.9 33.7 63 -5.2 22.6
01:30 1020 30.12 850 25.1 0.9 33.7 64 -5.1 22.8
01:35 1020 30.12 850 25.1 1 33.7 65 -5 23.1
01:40 1020 30.12 850 25.1 0.9 33.7 65 -4.9 23.2
01:45 1020 30.12 850 25.1 0.9 33.7 66 -4.8 23.4
01:50 1020 30.12 850 25.1 0.9 33.6 65 -5 23.1
01:55 1021 30.15 850 25.1 1 33.8 65 -4.8 23.3
02:00 1021 30.15 850 25.1 1 33.8 65 -4.9 23.2
02:05 1021 30.15 850 25.1 1 33.8 65 -4.8 23.3
02:10 1021 30.15 850 25.1 1 33.8 65 -4.8 23.4
02:15 1021 30.15 850 25.1 1 33.9 66 -4.7 23.6
02:20 1021 30.15 850 25.1 1 33.8 65 -4.8 23.4
02:25 1020 30.12 850 25.1 1 33.8 65 -4.8 23.3
02:30 1020 30.12 850 25.1 1 33.7 65 -4.8 23.4
02:35 1020 30.12 850 25.1 1 33.8 66 -4.7 23.5
02:40 1020 30.12 850 25.1 1 33.7 66 -4.7 23.5
02:45 1020 30.12 850 25.1 1 33.7 66 -4.7 23.6
02:50 1020 30.12 850 25.1 1 33.8 65 -4.7 23.5
02:55 1020 30.12 850 25.1 1 33.9 66 -4.7 23.5
03:00 1020 30.12 850 25.1 1 33.8 66 -4.7 23.5
03:05 1020 30.12 850 25.1 1 33.8 67 -4.6 23.8
03:10 1020 30.12 850 25.1 0.9 33.7 67 -4.5 23.8
03:15 1020 30.12 850 25.1 0.9 33.7 67 -4.5 23.9
03:20 1020 30.12 849 25.07 0.9 33.7 67 -4.6 23.7
03:25 1020 30.12 849 25.07 0.9 33.7 66 -4.7 23.6
03:30 1020 30.12 849 25.07 1 33.9 65 -4.8 23.4
03:35 1020 30.12 849 25.07 1.1 34 65 -4.7 23.5
03:40 1020 30.12 849 25.07 1.2 34.2 65 -4.6 23.7
03:45 1020 30.12 849 25.07 1.2 34.1 66 -4.6 23.8
03:50 1020 30.12 849 25.07 1.1 34 66 -4.6 23.7
03:55 1020 30.12 849 25.07 1 33.9 66 -4.6 23.7
04:00 1020 30.12 849 25.07 1 33.9 66 -4.6 23.7
04:05 1020 30.12 849 25.07 1 33.9 66 -4.6 23.7
04:10 1020 30.12 849 25.07 1.1 34.1 66 -4.5 23.9
04:15 1020 30.12 850 25.1 1.3 34.3 65 -4.6 23.7
04:20 1020 30.12 850 25.1 1.4 34.4 65 -4.5 23.9
04:25 1020 30.12 850 25.1 1.3 34.4 65 -4.6 23.8
04:30 1020 30.12 850 25.1 1.4 34.5 65 -4.4 24.1
04:35 1020 30.12 850 25.1 1.4 34.5 66 -4.4 24.2
04:40 1020 30.12 850 25.1 1.4 34.4 65 -4.6 23.7
04:45 1020 30.12 850 25.1 1.3 34.3 64 -4.8 23.3
04:50 1020 30.12 850 25.1 1.3 34.4 64 -4.8 23.3
04:55 1020 30.12 850 25.1 1.5 34.7 64 -4.6 23.7
05:00 1020 30.12 850 25.1 1.5 34.6 64 -4.6 23.8
05:05 1020 30.12 850 25.1 1.5 34.7 64 -4.6 23.7
05:10 1020 30.12 850 25.1 1.5 34.7 64 -4.6 23.7
05:15 1020 30.12 850 25.1 1.4 34.6 64 -4.7 23.5
05:20 1020 30.12 850 25.1 1.5 34.6 64 -4.7 23.6
05:25 1020 30.12 850 25.1 1.4 34.4 64 -4.7 23.5
05:30 1020 30.12 850 25.1 1.2 34.2 65 -4.7 23.5
05:35 1020 30.12 850 25.1 1.2 34.2 65 -4.6 23.6
05:40 1020 30.12 850 25.1 1.2 34.1 65 -4.7 23.6
05:45 1021 30.15 850 25.1 1.1 33.9 65 -4.7 23.5
05:50 1021 30.15 850 25.1 1.1 34 66 -4.6 23.7
05:55 1020 30.12 850 25.1 1.1 34.1 66 -4.6 23.8
06:00 1021 30.15 850 25.1 1.2 34.1 66 -4.5 23.9
06:05 1020 30.12 850 25.1 1.1 33.9 67 -4.4 24.1
06:10 1020 30.12 850 25.1 1 33.8 67 -4.4 24
06:15 1021 30.15 850 25.1 1 33.9 67 -4.4 24.1
06:20 1021 30.15 850 25.1 1 33.8 67 -4.4 24
06:25 1021 30.15 850 25.1 1 33.9 67 -4.3 24.2
06:30 1021 30.15 850 25.1 1.1 34 67 -4.3 24.2
06:35 1020 30.12 850 25.1 1.1 34 67 -4.3 24.3
06:40 1020 30.12 850 25.1 1.1 33.9 67 -4.3 24.2
06:45 1020 30.12 850 25.1 0.9 33.7 68 -4.3 24.3
06:50 1020 30.12 850 25.1 0.9 33.7 69 -4.2 24.5
06:55 1020 30.12 850 25.1 1 33.8 68 -4.2 24.4
07:00 1020 30.12 850 25.1 1 33.7 68 -4.3 24.3
07:05 1020 30.12 850 25.1 1.1 33.9 68 -4.2 24.4
07:10 1021 30.15 850 25.1 1.2 34.1 67 -4.3 24.2
07:15 1021 30.15 850 25.1 1.3 34.4 66 -4.2 24.4
07:20 1021 30.15 850 25.1 1.3 34.4 67 -4.2 24.5
07:25 1021 30.15 850 25.1 1.3 34.3 67 -4.2 24.5
07:30 1021 30.15 850 25.1 1.3 34.4 65 -4.5 23.9
07:35 1021 30.15 850 25.1 1.3 34.4 65 -4.5 23.9
07:40 1021 30.15 850 25.1 1.4 34.4 65 -4.6 23.8
07:45 1021 30.15 850 25.1 1.4 34.6 64 -4.7 23.5
07:50 1021 30.15 850 25.1 1.5 34.6 63 -4.8 23.4
07:55 1021 30.15 850 25.1 1.5 34.8 63 -4.8 23.4
08:00 1021 30.15 850 25.1 1.7 35 63 -4.7 23.5
08:05 1021 30.15 850 25.1 1.8 35.3 61 -4.8 23.3
08:10 1021 30.15 850 25.1 1.9 35.4 61 -4.8 23.3
08:15 1021 30.15 850 25.1 2 35.6 60 -5.1 22.9
08:20 1021 30.15 850 25.1 2 35.7 60 -4.9 23.1
08:25 1021 30.15 850 25.1 2.2 36 59 -5.1 22.9
08:30 1021 30.15 850 25.1 2.2 36 59 -5 23
08:35 1021 30.15 850 25.1 2.2 36 58 -5.1 22.9
08:40 1021 30.15 850 25.1 2.4 36.2 58 -5 23
08:45 1021 30.15 850 25.1 2.4 36.4 58 -5 22.9
08:50 1021 30.15 850 25.1 2.4 36.3 58 -5 22.9
08:55 1021 30.15 850 25.1 2.6 36.7 57 -5.1 22.9
09:00 1021 30.15 850 25.1 2.7 36.9 57 -5 23
09:05 1021 30.15 850 25.1 2.7 36.9 57 -5 23.1
09:10 1021 30.15 850 25.1 2.8 37 57 -4.9 23.1
09:15 1021 30.15 850 25.1 2.9 37.2 55 -5.2 22.6
09:20 1021 30.15 850 25.1 2.8 37 56 -5.2 22.7
09:25 1021 30.15 850 25.1 2.9 37.1 56 -5 23
09:30 1021 30.15 850 25.1 2.8 37.1 57 -4.9 23.3
09:35 1021 30.15 850 25.1 2.9 37.2 57 -4.8 23.3
09:40 1021 30.15 850 25.1 2.9 37.2 58 -4.6 23.6
09:45 1021 30.15 850 25.1 3.1 37.5 57 -4.7 23.6
09:50 1021 30.15 850 25.1 3.1 37.6 57 -4.6 23.6
09:55 1021 30.15 850 25.1 3.3 38 56 -4.6 23.7
10:00 1021 30.15 850 25.1 3.5 38.3 55 -4.6 23.8
10:05 1021 30.15 850 25.1 3.5 38.3 56 -4.4 24
10:10 1021 30.15 850 25.1 3.3 38 57 -4.4 24
10:15 1021 30.15 850 25.1 3.4 38.1 56 -4.5 23.9
10:20 1021 30.15 850 25.1 3.5 38.3 55 -4.7 23.6
10:25 1021 30.15 850 25.1 3.7 38.7 53 -5.1 22.9
10:30 1021 30.15 850 25.1 3.8 38.9 52 -5 22.9
10:35 1021 30.15 850 25.1 4.5 40 52 -4.4 24
10:40 1021 30.15 850 25.1 5 41 49 -4.9 23.3
10:45 1021 30.15 850 25.1 4.6 40.3 51 -4.7 23.5
10:50 1021 30.15 850 25.1 4.8 40.7 46 -5.8 21.6
10:55 1021 30.15 850 25.1 5.1 41.2 45 -5.8 21.6
11:00 1020 30.12 850 25.1 5 41 46 -5.6 21.9
11:05 1020 30.12 850 25.1 5.5 41.9 45 -5.5 22.1
11:10 1020 30.12 850 25.1 5.9 42.7 45 -5.2 22.7
11:15 1020 30.12 850 25.1 5.9 42.5 44 -5.6 21.9
11:20 1020 30.12 850 25.1 6 42.8 43 -5.7 21.7
11:25 1020 30.12 850 25.1 6.1 43 43 -5.6 21.9
11:30 1020 30.12 850 25.1 5.8 42.4 42 -6 21.1
11:35 1020 30.12 849 25.07 6.2 43.1 40 -6.4 20.5
11:40 1020 30.12 849 25.07 6.1 43 42 -5.9 21.4
11:45 1020 30.12 849 25.07 6.6 43.9 40 -5.9 21.3
11:50 1020 30.12 849 25.07 7 44.6 40 -5.5 22
11:55 1020 30.12 849 25.07 6.4 43.6 41 -5.9 21.4
12:00 1020 30.12 849 25.07 6.6 43.8 42 -5.5 22.2
12:05 1020 30.12 849 25.07 7 44.7 40 -5.6 21.9
12:10 1020 30.12 849 25.07 6.6 43.8 42 -5.6 22
12:15 1020 30.12 849 25.07 6.8 44.2 40 -5.9 21.4
12:20 1020 30.12 849 25.07 7.2 44.9 41 -5.2 22.6
12:25 1020 30.12 849 25.07 7.3 45.1 40 -5.6 22
12:30 1020 30.12 849 25.07 7.3 45.1 40 -5.4 22.3
12:35 1020 30.12 849 25.07 7.6 45.7 37 -6 21.2
12:40 1019 30.09 849 25.07 8 46.4 39 -5.2 22.6
12:45 1019 30.09 849 25.07 8.6 47.4 35 -6.1 21.1
12:50 1019 30.09 848 25.04 8.3 46.9 37 -5.6 22
12:55 1019 30.09 848 25.04 7.8 46 40 -4.9 23.2
13:00 1019 30.09 848 25.04 8.2 46.8 40 -4.4 24.1
13:05 1019 30.09 848 25.04 8.8 47.8 40 -4.1 24.7
13:10 1019 30.09 848 25.04 9 48.2 36 -5.3 22.5
13:15 1019 30.09 848 25.04 9 48.2 40 -4 24.8
13:20 1019 30.09 848 25.04 9.6 49.3 37 -4.4 24
13:25 1019 30.09 848 25.04 9 48.3 40 -4 24.8
13:30 1019 30.09 848 25.04 9.1 48.3 41 -3.6 25.5
13:35 1019 30.09 848 25.04 9.4 48.9 36 -5 23.1
13:40 1019 30.09 848 25.04 8.9 48.1 36 -5.5 22.1
13:45 1019 30.09 848 25.04 8.1 46.5 37 -5.6 21.9
13:50 1018 30.06 848 25.04 8.3 46.9 38 -5.1 22.9
13:55 1018 30.06 848 25.04 8.4 47 40 -4.3 24.3
14:00 1018 30.06 847 25.01 9.7 49.4 42 -2.7 27.2
14:05 1018 30.06 847 25.01 10.3 50.6 36 -4.2 24.4
14:10 1018 30.06 847 25.01 10.4 50.7 35 -4.4 24.1
14:15 1018 30.06 847 25.01 10.9 51.6 32 -5.1 22.9
14:20 1018 30.06 847 25.01 11.2 52.1 34 -4 24.8
14:25 1018 30.06 847 25.01 11.2 52.1 34 -4.1 24.6
14:30 1018 30.06 847 25.01 10.6 51 32 -5.3 22.4
14:35 1018 30.06 847 25.01 10.4 50.8 33 -5.1 22.7
14:40 1018 30.06 847 25.01 10.9 51.7 32 -5.1 22.8
14:45 1018 30.06 847 25.01 10.5 50.9 33 -5 23.1
14:50 1018 30.06 847 25.01 11.2 52.1 32 -4.8 23.3
14:55 1018 30.06 847 25.01 10.9 51.7 31 -5.5 22.1
15:00 1017 30.03 847 25.01 10.8 51.4 34 -4.3 24.3
15:05 1017 30.03 846 24.98 10.8 51.5 34 -4.6 23.8
15:10 1017 30.03 846 24.98 11.2 52.2 33 -4.6 23.8
15:15 1017 30.03 846 24.98 11.6 52.9 32 -4.6 23.7
15:20 1017 30.03 846 24.98 11.9 53.4 31 -4.7 23.5
15:25 1017 30.03 846 24.98 12.1 53.8 30 -4.8 23.3
15:30 1017 30.03 846 24.98 12 53.6 30 -4.8 23.3
15:35 1017 30.03 846 24.98 12.3 54.2 28 -5.7 21.8
15:40 1017 30.03 846 24.98 11.6 52.9 31 -4.7 23.5
15:45 1017 30.03 846 24.98 11.5 52.7 29 -6 21.2
15:50 1017 30.03 846 24.98 12.2 53.9 27 -6.2 20.8
15:55 1017 30.03 846 24.98 12.5 54.5 26 -6.5 20.3
16:00 1017 30.03 846 24.98 12.7 54.8 26 -6.3 20.7
16:05 1016 30 846 24.98 12.9 55.2 26 -6.1 21.1
16:10 1016 30 846 24.98 13.3 55.9 26 -5.7 21.7
16:15 1016 30 845 24.95 13.4 56.1 26 -5.6 21.9
16:20 1016 30 845 24.95 13.3 55.9 25 -6.3 20.7
16:25 1016 30 845 24.95 13.5 56.3 25 -6.2 20.9
16:30 1016 30 845 24.95 13.2 55.7 25 -6.6 20.2
16:35 1016 30 845 24.95 13 55.3 25 -6.4 20.5
16:40 1016 30 845 24.95 13 55.4 25 -6.7 20
16:45 1016 30 845 24.95 13.2 55.7 24 -6.8 19.7
16:50 1016 30 845 24.95 13.3 55.9 24 -6.9 19.7
16:55 1016 30 845 24.95 13.1 55.7 24 -7 19.3
17:00 1016 30 845 24.95 13.1 55.6 23 -7.4 18.7
17:05 1016 30 845 24.95 13.5 56.3 23 -7.3 18.8
17:10 1016 30 845 24.95 13.1 55.6 26 -6 21.3
17:15 1016 30 845 24.95 12.6 54.6 26 -6.4 20.4
17:20 1016 30 845 24.95 12.5 54.4 23 -8.1 17.4
17:25 1016 30 845 24.95 12.7 54.8 25 -6.9 19.7
17:30 1015 29.97 845 24.95 13 55.3 23 -7.9 17.8
17:35 1015 29.97 845 24.95 12.9 55.1 23 -7.5 18.4
17:40 1015 29.97 845 24.95 13 55.3 23 -7.6 18.4
17:45 1015 29.97 845 24.95 12.8 55 25 -6.6 20.1
17:50 1015 29.97 844 24.92 13.1 55.5 24 -6.9 19.7
17:55 1015 29.97 844 24.92 12.9 55.1 25 -6.8 19.8
18:00 1015 29.97 844 24.92 13.3 55.9 25 -6.2 20.9
18:05 1015 29.97 844 24.92 13.3 56 25 -6.4 20.5
18:10 1015 29.97 844 24.92 13.1 55.5 26 -6.2 20.8
18:15 1015 29.97 844 24.92 13 55.5 25 -6.4 20.4
18:20 1015 29.97 844 24.92 13 55.3 25 -6.6 20
18:25 1015 29.97 844 24.92 12.8 55.1 25 -6.6 20.1
18:30 1015 29.97 844 24.92 12.8 55.1 25 -6.6 20.1
18:35 1015 29.97 844 24.92 12.5 54.5 26 -6.4 20.5
18:40 1015 29.97 844 24.92 12.4 54.4 27 -6 21.2
18:45 1015 29.97 844 24.92 12.4 54.3 27 -5.9 21.4
18:50 1015 29.97 844 24.92 12.4 54.3 27 -6.1 21
18:55 1015 29.97 844 24.92 12.3 54.2 28 -5.8 21.5
19:00 1015 29.97 844 24.92 12.3 54.2 28 -5.7 21.8
19:05 1015 29.97 844 24.92 12.3 54.2 29 -5 23
19:10 1015 29.97 844 24.92 12.3 54.2 29 -5 23
19:15 1015 29.97 844 24.92 12.2 53.9 28 -5.6 22
19:20 1015 29.97 844 24.92 12.1 53.7 29 -5.4 22.3
19:25 1014 29.94 844 24.92 11.9 53.5 29 -5.5 22.1
19:30 1014 29.94 844 24.92 11.9 53.5 30 -5.1 22.9
19:35 1015 29.97 844 24.92 11.8 53.2 31 -4.8 23.3
19:40 1015 29.97 844 24.92 11.6 52.8 32 -4.7 23.5
19:45 1015 29.97 844 24.92 11.4 52.5 32 -4.7 23.5
19:50 1015 29.97 844 24.92 11.3 52.4 32 -4.8 23.4
19:55 1015 29.97 844 24.92 11.2 52.1 33 -4.5 23.8
20:00 1015 29.97 844 24.92 11 51.9 32 -4.8 23.3
20:05 1015 29.97 844 24.92 10.9 51.7 33 -4.7 23.6
20:10 1015 29.97 844 24.92 10.7 51.2 34 -4.6 23.6
20:15 1015 29.97 844 24.92 10.4 50.7 34 -4.7 23.5
20:20 1015 29.97 844 24.92 10.1 50.3 35 -4.7 23.6
20:25 1015 29.97 844 24.92 9.8 49.7 35 -4.9 23.1
20:30 1015 29.97 844 24.92 9.5 49.1 37 -4.4 24.1
20:35 1015 29.97 844 24.92 9.1 48.4 39 -4 24.9
20:40 1015 29.97 844 24.92 8.8 47.8 39 -4.5 23.9
20:45 1015 29.97 844 24.92 8.9 48.1 38 -4.5 23.9
20:50 1015 29.97 844 24.92 8.9 48 39 -4.2 24.4
20:55 1015 29.97 844 24.92 8.7 47.7 39 -4.6 23.8
21:00 1015 29.97 844 24.92 8.7 47.7 39 -4.4 24.2
21:05 1015 29.97 844 24.92 8.5 47.4 41 -3.8 25.1
21:10 1015 29.97 844 24.92 8.2 46.8 41 -4.3 24.3
21:15 1015 29.97 844 24.92 8.2 46.8 41 -4.2 24.4
21:20 1015 29.97 844 24.92 8.2 46.7 41 -4.2 24.5
21:25 1015 29.97 844 24.92 8.3 47 38 -5 23
21:30 1015 29.97 844 24.92 8.9 48.1 36 -5.5 22.1
21:35 1015 29.97 844 24.92 9.2 48.5 35 -5.4 22.2
21:40 1015 29.97 844 24.92 9.3 48.7 35 -5.5 22.1
21:45 1015 29.97 844 24.92 9 48.2 39 -4.3 24.2
21:50 1015 29.97 844 24.92 8.7 47.7 37 -5.2 22.6
21:55 1015 29.97 844 24.92 8.6 47.6 39 -4.4 24.1
22:00 1015 29.97 844 24.92 8.1 46.5 42 -4 24.8
22:05 1015 29.97 844 24.92 8.1 46.5 40 -4.6 23.7
22:10 1015 29.97 844 24.92 8.1 46.7 42 -3.9 25
22:15 1015 29.97 844 24.92 7.5 45.6 44 -3.9 25
22:20 1015 29.97 844 24.92 7.4 45.4 43 -4.3 24.3
22:25 1015 29.97 844 24.92 7.5 45.5 43 -4.4 24.2
22:30 1015 29.97 844 24.92 7.6 45.7 43 -4.1 24.7
22:35 1015 29.97 844 24.92 7.2 45 44 -4.1 24.5
22:40 1015 29.97 844 24.92 7.3 45.1 45 -4 24.8
22:45 1015 29.97 844 24.92 7.1 44.7 46 -3.8 25.1
22:50 1014 29.94 844 24.92 7.1 44.7 45 -4.1 24.7
22:55 1014 29.94 844 24.92 7.4 45.2 44 -4.2 24.5
23:00 1014 29.94 844 24.92 7.5 45.5 44 -3.8 25.1
23:05 1014 29.94 844 24.92 7.3 45.1 45 -3.7 25.3
23:10 1014 29.94 844 24.92 7.4 45.2 44 -4.2 24.5
23:15 1014 29.94 844 24.92 7.7 45.9 43 -4.2 24.5
23:20 1014 29.94 844 24.92 7.6 45.6 43 -4.1 24.6
23:25 1014 29.94 844 24.92 7.4 45.2 44 -4.2 24.5
23:30 1014 29.94 843 24.89 7.3 45.2 44 -4 24.8
23:35 1014 29.94 843 24.89 7.2 44.9 46 -3.8 25.2
23:40 1014 29.94 843 24.89 6.9 44.5 47 -3.6 25.4
23:45 1014 29.94 844 24.92 6.7 44 49 -3.4 25.9
23:50 1014 29.94 843 24.89 6.4 43.5 49 -3.5 25.6
23:55 1014 29.94 843 24.89 6.5 43.7 48 -3.6 25.5
24:00 1014 29.94 844 24.92 6.7 44 48 -3.6 25.5